createdAt,value
2018-03-29T00:00:22.406Z,2.10
2018-03-29T00:02:49.861Z,2.20
2018-03-29T00:05:17.296Z,2.20
2018-03-29T00:07:44.782Z,2.20
2018-03-29T00:10:12.235Z,2.20
2018-03-29T00:12:39.691Z,2.30
2018-03-29T00:15:07.145Z,2.30
2018-03-29T00:17:34.604Z,2.30
2018-03-29T00:20:02.142Z,2.30
2018-03-29T00:22:29.579Z,2.40
2018-03-29T00:24:57.085Z,2.40
2018-03-29T00:27:24.532Z,2.50
2018-03-29T00:29:51.968Z,-0.10
2018-03-29T00:32:19.406Z,2.50
2018-03-29T00:34:46.867Z,2.60
2018-03-29T00:37:14.362Z,2.70
2018-03-29T00:39:41.801Z,2.70
2018-03-29T00:42:09.275Z,2.60
2018-03-29T00:44:36.730Z,2.70
2018-03-29T00:47:04.166Z,2.70
2018-03-29T00:49:31.619Z,2.80
2018-03-29T00:51:59.062Z,2.80
2018-03-29T00:54:26.565Z,2.80
2018-03-29T00:56:54.005Z,2.80
2018-03-29T00:59:21.457Z,2.90
2018-03-29T01:01:48.892Z,2.90
2018-03-29T01:04:16.338Z,2.80
2018-03-29T01:06:44.537Z,2.70
2018-03-29T01:09:11.996Z,2.60
2018-03-29T01:11:39.489Z,2.70
2018-03-29T01:14:06.926Z,2.80
2018-03-29T01:16:34.376Z,2.80
2018-03-29T01:19:01.844Z,2.80
2018-03-29T01:21:29.289Z,2.70
2018-03-29T01:23:56.774Z,2.60
2018-03-29T01:26:24.206Z,2.50
2018-03-29T01:28:51.634Z,2.50
2018-03-29T01:31:19.066Z,2.40
2018-03-29T01:33:47.264Z,2.40
2018-03-29T01:36:14.711Z,2.30
2018-03-29T01:38:42.137Z,2.30
2018-03-29T01:41:09.579Z,2.20
2018-03-29T01:43:37.033Z,2.10
2018-03-29T01:46:04.581Z,2.10
2018-03-29T01:48:32.030Z,2.10
2018-03-29T01:50:59.490Z,2.10
2018-03-29T01:53:26.961Z,2.10
2018-03-29T01:55:54.482Z,2.00
2018-03-29T01:58:21.905Z,2.00
2018-03-29T02:00:50.215Z,2.00
2018-03-29T02:03:17.642Z,1.90
2018-03-29T02:05:45.151Z,1.90
2018-03-29T02:08:12.583Z,1.90
2018-03-29T02:10:40.015Z,1.80
2018-03-29T02:13:07.466Z,1.80
2018-03-29T02:15:35.683Z,1.70
2018-03-29T02:18:03.110Z,1.60
2018-03-29T02:20:30.626Z,1.70
2018-03-29T02:22:58.148Z,1.70
2018-03-29T02:25:25.624Z,1.60
2018-03-29T02:27:53.061Z,1.60
2018-03-29T02:30:20.542Z,1.60
2018-03-29T02:32:47.995Z,1.50
2018-03-29T02:35:15.441Z,1.50
2018-03-29T02:37:42.871Z,1.50
2018-03-29T02:40:10.298Z,1.50
2018-03-29T02:42:38.507Z,1.40
2018-03-29T02:45:05.994Z,1.30
2018-03-29T02:47:33.451Z,1.40
2018-03-29T02:50:00.910Z,1.40
2018-03-29T02:52:28.368Z,1.40
2018-03-29T02:54:55.821Z,1.40
2018-03-29T02:57:23.274Z,1.40
2018-03-29T02:59:50.738Z,1.40
2018-03-29T03:02:18.188Z,1.40
2018-03-29T03:04:45.622Z,1.40
2018-03-29T03:07:13.104Z,1.40
2018-03-29T03:09:40.664Z,1.40
2018-03-29T03:12:08.124Z,1.40
2018-03-29T03:14:35.565Z,1.40
2018-03-29T03:17:03.098Z,1.40
2018-03-29T03:19:30.527Z,1.40
2018-03-29T03:21:58.726Z,1.40
2018-03-29T03:24:26.162Z,1.30
2018-03-29T03:26:54.370Z,1.40
2018-03-29T03:29:21.806Z,1.40
2018-03-29T03:31:49.297Z,1.40
2018-03-29T03:34:16.727Z,1.40
2018-03-29T03:36:44.178Z,1.40
2018-03-29T03:39:11.639Z,1.40
2018-03-29T03:41:39.221Z,1.30
2018-03-29T03:44:06.771Z,1.40
2018-03-29T03:46:34.249Z,1.40
2018-03-29T03:49:01.721Z,1.40
2018-03-29T03:51:29.163Z,1.40
2018-03-29T03:53:56.626Z,1.40
2018-03-29T03:56:24.066Z,1.30
2018-03-29T03:58:51.518Z,1.30
2018-03-29T04:01:18.989Z,1.30
2018-03-29T04:03:46.530Z,1.30
2018-03-29T04:06:14.024Z,1.30
2018-03-29T04:08:41.464Z,1.30
2018-03-29T04:11:08.915Z,1.30
2018-03-29T04:13:36.370Z,1.30
2018-03-29T04:16:03.939Z,1.30
2018-03-29T04:18:31.386Z,1.30
2018-03-29T04:20:58.841Z,1.30
2018-03-29T04:23:26.283Z,1.30
2018-03-29T04:25:53.709Z,1.30
2018-03-29T04:28:21.916Z,1.20
2018-03-29T04:30:49.346Z,1.20
2018-03-29T04:33:16.785Z,1.20
2018-03-29T04:35:44.402Z,1.20
2018-03-29T04:38:11.878Z,1.20
2018-03-29T04:40:39.372Z,1.20
2018-03-29T04:43:07.578Z,1.20
2018-03-29T04:45:35.047Z,1.20
2018-03-29T04:48:02.693Z,1.20
2018-03-29T04:50:30.176Z,1.20
2018-03-29T04:52:57.601Z,1.30
2018-03-29T04:55:25.047Z,1.20
2018-03-29T04:57:52.534Z,1.20
2018-03-29T05:00:19.973Z,1.30
2018-03-29T05:02:47.455Z,1.30
2018-03-29T05:05:14.915Z,1.20
2018-03-29T05:07:42.350Z,1.20
2018-03-29T05:10:09.804Z,1.20
2018-03-29T05:12:37.270Z,1.20
2018-03-29T05:15:04.811Z,1.30
2018-03-29T05:17:32.302Z,1.20
2018-03-29T05:19:59.842Z,1.30
2018-03-29T05:22:27.325Z,1.30
2018-03-29T05:24:54.779Z,1.40
2018-03-29T05:27:26.303Z,1.40
2018-03-29T05:29:53.740Z,1.30
2018-03-29T05:32:21.210Z,1.40
2018-03-29T05:34:48.652Z,1.40
2018-03-29T05:37:16.074Z,1.30
2018-03-29T05:39:44.316Z,1.30
2018-03-29T05:42:11.767Z,1.30
2018-03-29T05:44:39.211Z,1.30
2018-03-29T05:47:06.660Z,1.30
2018-03-29T05:49:34.090Z,1.30
2018-03-29T05:52:01.544Z,1.30
2018-03-29T05:54:28.989Z,1.20
2018-03-29T05:56:57.230Z,1.30
2018-03-29T05:59:24.681Z,1.20
2018-03-29T06:01:52.128Z,1.30
2018-03-29T06:04:19.558Z,1.30
2018-03-29T06:06:47.028Z,1.30
2018-03-29T06:09:14.458Z,1.40
2018-03-29T06:11:41.902Z,1.40
2018-03-29T06:14:10.114Z,1.40
2018-03-29T06:16:43.196Z,1.40
2018-03-29T06:19:10.626Z,1.50
2018-03-29T06:21:38.843Z,1.50
2018-03-29T06:24:06.318Z,1.40
2018-03-29T06:26:33.782Z,1.50
2018-03-29T06:29:01.254Z,1.50
2018-03-29T06:31:28.868Z,1.60
2018-03-29T06:33:56.346Z,1.50
2018-03-29T06:36:23.812Z,1.60
2018-03-29T06:38:51.264Z,1.60
2018-03-29T06:41:18.723Z,1.70
2018-03-29T06:43:46.266Z,1.70
2018-03-29T06:46:13.741Z,1.70
2018-03-29T06:48:41.207Z,1.80
2018-03-29T06:51:08.654Z,1.80
2018-03-29T06:53:36.106Z,1.80
2018-03-29T06:56:03.549Z,1.90
2018-03-29T06:58:31.093Z,1.90
2018-03-29T07:00:58.609Z,1.90
2018-03-29T07:03:25.994Z,2.00
2018-03-29T07:05:53.564Z,1.90
2018-03-29T07:08:20.986Z,1.90
2018-03-29T07:10:49.199Z,1.90
2018-03-29T07:13:16.853Z,1.90
2018-03-29T07:15:44.313Z,2.00
2018-03-29T07:18:11.783Z,2.00
2018-03-29T07:20:39.252Z,2.00
2018-03-29T07:23:06.707Z,2.10
2018-03-29T07:25:34.237Z,2.10
2018-03-29T07:28:01.671Z,2.20
2018-03-29T07:30:29.106Z,2.20
2018-03-29T07:32:57.324Z,2.30
2018-03-29T07:35:24.779Z,2.20
2018-03-29T07:37:52.207Z,2.20
2018-03-29T07:40:20.426Z,2.30
2018-03-29T07:45:21.990Z,2.30
2018-03-29T07:47:49.473Z,2.40
2018-03-29T07:50:16.995Z,2.40
2018-03-29T07:52:44.447Z,2.50
2018-03-29T07:55:11.887Z,2.50
2018-03-29T07:57:39.369Z,2.50
2018-03-29T08:00:06.819Z,2.60
2018-03-29T08:02:34.246Z,2.50
2018-03-29T08:05:02.472Z,2.50
2018-03-29T08:07:30.670Z,2.50
2018-03-29T08:09:58.127Z,3.90
2018-03-29T08:12:25.767Z,2.50
2018-03-29T08:14:53.206Z,2.50
2018-03-29T08:17:20.630Z,2.60
2018-03-29T08:19:48.084Z,2.70
2018-03-29T08:22:15.585Z,2.70
2018-03-29T08:24:42.989Z,2.70
2018-03-29T08:27:11.196Z,2.70
2018-03-29T08:29:38.655Z,2.70
2018-03-29T08:32:06.119Z,2.70
2018-03-29T08:34:33.572Z,2.80
2018-03-29T08:37:01.030Z,2.80
2018-03-29T08:39:28.487Z,2.80
2018-03-29T08:41:55.920Z,2.80
2018-03-29T08:44:23.395Z,2.80
2018-03-29T08:46:51.857Z,2.90
2018-03-29T08:49:19.333Z,2.90
2018-03-29T08:51:47.403Z,3.00
2018-03-29T08:54:15.066Z,3.10
2018-03-29T08:56:42.729Z,3.20
2018-03-29T08:59:10.190Z,3.20
2018-03-29T09:01:37.626Z,3.30
2018-03-29T09:04:05.058Z,3.30
2018-03-29T09:06:33.320Z,3.30
2018-03-29T09:09:00.759Z,3.30
2018-03-29T09:11:28.307Z,3.30
2018-03-29T09:13:55.769Z,3.50
2018-03-29T09:16:23.226Z,3.50
2018-03-29T09:18:50.686Z,3.40
2018-03-29T09:21:18.137Z,3.40
2018-03-29T09:23:45.591Z,3.30
2018-03-29T09:26:13.194Z,3.30
2018-03-29T09:28:41.510Z,3.40
2018-03-29T09:31:09.069Z,3.40
2018-03-29T09:33:36.521Z,3.50
2018-03-29T09:36:03.981Z,3.40
2018-03-29T09:38:31.542Z,3.40
2018-03-29T09:40:58.995Z,3.40
2018-03-29T09:43:26.446Z,3.40
2018-03-29T09:45:53.886Z,3.50
2018-03-29T09:48:21.361Z,3.70
2018-03-29T09:50:48.785Z,3.60
2018-03-29T09:53:17.010Z,3.50
2018-03-29T09:55:44.551Z,3.40
2018-03-29T09:58:12.126Z,3.50
2018-03-29T10:00:39.543Z,3.60
2018-03-29T10:03:10.028Z,3.70
2018-03-29T10:05:37.465Z,3.70
2018-03-29T10:08:05.004Z,3.70
2018-03-29T10:10:32.426Z,3.60
2018-03-29T10:13:00.639Z,3.80
2018-03-29T10:15:28.071Z,3.70
2018-03-29T10:17:55.575Z,3.80
2018-03-29T10:20:23.124Z,3.80
2018-03-29T10:22:50.599Z,3.70
2018-03-29T10:25:18.026Z,4.30
2018-03-29T10:27:45.581Z,3.60
2018-03-29T10:30:13.026Z,3.60
2018-03-29T10:32:41.554Z,3.70
2018-03-29T10:35:10.544Z,3.60
2018-03-29T10:37:38.071Z,3.60
2018-03-29T10:40:05.559Z,3.70
2018-03-29T10:42:33.100Z,3.80
2018-03-29T10:45:00.519Z,3.80
2018-03-29T10:47:27.999Z,3.90
2018-03-29T10:49:55.428Z,3.90
2018-03-29T10:52:23.642Z,3.90
2018-03-29T10:54:51.186Z,3.90
2018-03-29T10:57:18.640Z,4.10
2018-03-29T10:59:46.124Z,4.00
2018-03-29T11:02:13.555Z,4.00
2018-03-29T11:04:41.034Z,3.90
2018-03-29T11:07:08.469Z,3.90
2018-03-29T11:09:35.953Z,4.00
2018-03-29T11:12:03.486Z,4.10
2018-03-29T11:14:30.940Z,4.10
2018-03-29T11:16:58.503Z,3.90
2018-03-29T11:19:25.931Z,3.80
2018-03-29T11:21:54.256Z,3.70
2018-03-29T11:24:21.793Z,3.60
2018-03-29T11:26:49.291Z,3.70
2018-03-29T11:29:17.761Z,3.60
2018-03-29T11:31:45.295Z,3.60
2018-03-29T11:34:12.758Z,3.70
2018-03-29T11:36:40.304Z,6.40
2018-03-29T11:39:07.787Z,3.70
2018-03-29T11:41:35.320Z,3.70
2018-03-29T11:44:02.778Z,3.70
2018-03-29T11:46:30.258Z,3.80
2018-03-29T11:48:57.794Z,3.90
2018-03-29T11:51:25.226Z,3.90
2018-03-29T11:53:53.440Z,3.80
2018-03-29T11:56:20.878Z,3.70
2018-03-29T11:58:48.481Z,3.80
2018-03-29T12:01:15.996Z,3.70
2018-03-29T12:03:43.411Z,3.70
2018-03-29T12:06:11.638Z,3.90
2018-03-29T12:08:39.117Z,3.80
2018-03-29T12:11:06.704Z,4.00
2018-03-29T12:13:34.203Z,4.10
2018-03-29T12:16:01.705Z,4.10
2018-03-29T12:18:29.150Z,4.00
2018-03-29T12:20:56.705Z,4.00
2018-03-29T12:23:24.231Z,4.00
2018-03-29T12:25:51.690Z,3.70
2018-03-29T12:28:19.210Z,3.60
2018-03-29T12:30:46.740Z,3.70
2018-03-29T12:33:14.172Z,3.80
2018-03-29T12:35:41.716Z,3.80
2018-03-29T12:38:09.138Z,3.90
2018-03-29T12:40:37.358Z,4.00
2018-03-29T12:43:04.849Z,3.90
2018-03-29T12:45:32.300Z,4.10
2018-03-29T12:47:59.850Z,4.20
2018-03-29T12:50:27.341Z,4.20
2018-03-29T12:52:54.831Z,4.20
2018-03-29T12:55:34.310Z,4.20
2018-03-29T12:58:08.494Z,4.30
2018-03-29T13:00:35.972Z,4.40
2018-03-29T13:03:03.503Z,4.40
2018-03-29T13:05:30.961Z,4.30
2018-03-29T13:07:58.403Z,4.20
2018-03-29T13:10:25.893Z,4.30
2018-03-29T13:12:53.353Z,4.20
2018-03-29T13:15:20.893Z,4.40
2018-03-29T13:17:48.366Z,4.50
2018-03-29T13:20:15.960Z,4.60
2018-03-29T13:22:43.464Z,4.80
2018-03-29T13:25:10.887Z,4.80
2018-03-29T13:27:39.102Z,4.60
2018-03-29T13:30:06.546Z,4.60
2018-03-29T13:32:34.003Z,4.70
2018-03-29T13:35:01.436Z,4.90
2018-03-29T13:37:28.974Z,4.90
2018-03-29T13:39:57.217Z,4.90
2018-03-29T13:42:24.753Z,4.90
2018-03-29T13:44:52.175Z,5.00
2018-03-29T13:47:20.433Z,4.90
2018-03-29T13:49:47.824Z,4.80
2018-03-29T13:52:15.322Z,4.70
2018-03-29T13:54:42.859Z,4.80
2018-03-29T13:57:10.315Z,4.70
2018-03-29T13:59:37.754Z,4.70
2018-03-29T14:02:05.283Z,4.70
2018-03-29T14:04:32.819Z,4.90
2018-03-29T14:07:00.169Z,5.00
2018-03-29T14:09:27.700Z,5.10
2018-03-29T14:11:55.155Z,5.30
2018-03-29T14:14:22.645Z,5.20
2018-03-29T14:16:50.102Z,5.20
2018-03-29T14:19:17.629Z,5.30
2018-03-29T14:21:45.117Z,5.20
2018-03-29T14:24:12.666Z,5.20
2018-03-29T14:26:40.202Z,5.10
2018-03-29T14:29:07.702Z,5.20
2018-03-29T14:31:35.278Z,5.30
2018-03-29T14:34:02.879Z,5.40
2018-03-29T14:36:30.334Z,5.40
2018-03-29T14:38:57.808Z,5.40
2018-03-29T14:41:25.251Z,5.40
2018-03-29T14:43:52.733Z,5.40
2018-03-29T14:46:20.265Z,5.40
2018-03-29T14:48:47.710Z,5.60
2018-03-29T14:51:15.195Z,5.60
2018-03-29T14:53:42.652Z,5.40
2018-03-29T14:56:10.109Z,5.30
2018-03-29T14:58:37.665Z,5.40
2018-03-29T15:01:05.145Z,5.60
2018-03-29T15:03:32.555Z,5.60
2018-03-29T15:06:00.003Z,5.60
2018-03-29T15:08:27.515Z,5.60
2018-03-29T15:10:55.051Z,5.60
2018-03-29T15:13:22.493Z,5.40
2018-03-29T15:15:50.051Z,5.50
2018-03-29T15:18:17.496Z,5.40
2018-03-29T15:20:44.960Z,5.50
2018-03-29T15:23:12.422Z,5.40
2018-03-29T15:25:39.880Z,5.40
2018-03-29T15:28:07.439Z,5.40
2018-03-29T15:30:34.884Z,5.50
2018-03-29T15:33:02.335Z,5.50
2018-03-29T15:35:29.834Z,8.10
2018-03-29T15:37:57.290Z,5.60
2018-03-29T15:40:24.772Z,5.60
2018-03-29T15:42:52.213Z,5.70
2018-03-29T15:45:19.671Z,5.60
2018-03-29T15:47:47.124Z,5.70
2018-03-29T15:50:14.550Z,5.70
2018-03-29T15:52:42.003Z,5.80
2018-03-29T15:55:09.463Z,6.10
2018-03-29T15:57:37.028Z,6.20
2018-03-29T16:00:04.468Z,6.10
2018-03-29T16:02:31.909Z,5.90
2018-03-29T16:04:59.355Z,5.80
2018-03-29T16:07:27.607Z,5.50
2018-03-29T16:09:55.104Z,5.50
2018-03-29T16:12:22.481Z,5.50
2018-03-29T16:14:49.968Z,5.40
2018-03-29T16:17:17.404Z,5.20
2018-03-29T16:19:44.887Z,5.00
2018-03-29T16:22:12.322Z,4.90
2018-03-29T16:24:39.790Z,5.00
2018-03-29T16:27:07.334Z,5.00
2018-03-29T16:29:34.926Z,4.90
2018-03-29T16:32:03.264Z,4.80
2018-03-29T16:34:30.722Z,4.80
2018-03-29T16:36:58.369Z,4.80
2018-03-29T16:39:25.798Z,4.90
2018-03-29T16:41:54.017Z,5.00
2018-03-29T16:44:21.524Z,5.00
2018-03-29T16:46:49.747Z,5.10
2018-03-29T16:49:17.210Z,5.10
2018-03-29T16:51:44.670Z,5.20
2018-03-29T16:54:12.106Z,5.20
2018-03-29T16:56:39.546Z,5.20
2018-03-29T16:59:07.008Z,5.20
2018-03-29T17:01:34.446Z,5.20
2018-03-29T17:04:02.054Z,5.20
2018-03-29T17:06:29.527Z,5.20
2018-03-29T17:08:56.983Z,5.40
2018-03-29T17:11:24.453Z,5.40
2018-03-29T17:13:52.064Z,5.40
2018-03-29T17:16:19.513Z,5.40
2018-03-29T17:18:46.998Z,5.40
2018-03-29T17:21:14.432Z,5.20
2018-03-29T17:23:41.872Z,5.00
2018-03-29T17:26:09.327Z,5.00
2018-03-29T17:28:36.782Z,5.00
2018-03-29T17:31:04.241Z,5.00
2018-03-29T17:33:31.903Z,5.00
2018-03-29T17:36:00.115Z,4.90
2018-03-29T17:38:27.571Z,4.80
2018-03-29T17:40:54.993Z,4.90
2018-03-29T17:43:22.465Z,4.90
2018-03-29T17:45:49.888Z,4.80
2018-03-29T17:48:17.321Z,4.70
2018-03-29T17:50:44.755Z,4.80
2018-03-29T17:53:12.306Z,4.90
2018-03-29T17:55:39.795Z,4.80
2018-03-29T17:58:07.364Z,4.70
2018-03-29T18:00:34.795Z,4.60
2018-03-29T18:03:02.218Z,4.50
2018-03-29T18:05:29.762Z,4.50
2018-03-29T18:07:57.354Z,4.50
2018-03-29T18:10:24.806Z,4.60
2018-03-29T18:12:52.301Z,4.60
2018-03-29T18:15:19.816Z,4.60
2018-03-29T18:17:47.302Z,4.70
2018-03-29T18:20:14.767Z,4.60
2018-03-29T18:22:42.283Z,4.70
2018-03-29T18:25:09.848Z,4.70
2018-03-29T18:27:37.396Z,4.60
2018-03-29T18:30:04.890Z,4.50
2018-03-29T18:32:32.419Z,4.60
2018-03-29T18:34:59.852Z,4.60
2018-03-29T18:37:27.432Z,4.70
2018-03-29T18:39:54.929Z,4.70
2018-03-29T18:42:22.670Z,4.70
2018-03-29T18:44:50.112Z,4.70
2018-03-29T18:47:17.551Z,4.60
2018-03-29T18:49:44.993Z,4.50
2018-03-29T18:52:13.302Z,4.30
2018-03-29T18:54:40.736Z,4.30
2018-03-29T18:57:08.187Z,4.40
2018-03-29T18:59:35.630Z,4.30
2018-03-29T19:02:03.848Z,4.30
2018-03-29T19:04:31.340Z,4.30
2018-03-29T19:06:58.792Z,4.40
2018-03-29T19:09:26.217Z,4.40
2018-03-29T19:11:53.660Z,4.30
2018-03-29T19:14:21.112Z,4.40
2018-03-29T19:16:48.565Z,4.30
2018-03-29T19:19:16.016Z,4.30
2018-03-29T19:21:43.488Z,4.30
2018-03-29T19:24:10.967Z,4.20
2018-03-29T19:26:38.414Z,4.10
2018-03-29T19:29:05.865Z,4.10
2018-03-29T19:31:33.375Z,4.10
2018-03-29T19:34:00.876Z,4.00
2018-03-29T19:36:28.295Z,4.00
2018-03-29T19:38:56.549Z,4.10
2018-03-29T19:41:23.982Z,4.10
2018-03-29T19:43:51.523Z,4.10
2018-03-29T19:46:19.079Z,4.00
2018-03-29T19:48:46.646Z,4.60
2018-03-29T19:51:14.109Z,3.90
2018-03-29T19:53:41.575Z,3.70
2018-03-29T19:56:09.009Z,3.70
2018-03-29T19:58:36.471Z,3.60
2018-03-29T20:01:03.904Z,3.60
2018-03-29T20:03:31.368Z,3.50
2018-03-29T20:05:59.553Z,3.40
2018-03-29T20:08:26.993Z,3.40
2018-03-29T20:10:54.418Z,3.50
2018-03-29T20:13:22.738Z,3.50
2018-03-29T20:15:50.162Z,3.50
2018-03-29T20:18:18.473Z,3.40
2018-03-29T20:20:45.899Z,3.40
2018-03-29T20:23:14.138Z,3.40
2018-03-29T20:25:41.670Z,3.30
2018-03-29T20:28:09.116Z,3.40
2018-03-29T20:30:36.646Z,3.50
2018-03-29T20:33:04.852Z,3.50
2018-03-29T20:35:32.426Z,3.40
2018-03-29T20:37:59.897Z,3.60
2018-03-29T20:40:27.403Z,3.50
2018-03-29T20:42:54.888Z,3.40
2018-03-29T20:45:22.344Z,3.50
2018-03-29T20:47:49.801Z,3.50
2018-03-29T20:50:17.521Z,3.50
2018-03-29T20:52:45.738Z,3.40
2018-03-29T20:55:13.206Z,3.40
2018-03-29T20:57:40.658Z,3.40
2018-03-29T21:00:08.130Z,3.40
2018-03-29T21:02:35.571Z,3.30
2018-03-29T21:05:03.012Z,3.40
2018-03-29T21:07:30.433Z,3.30
2018-03-29T21:09:58.645Z,3.30
2018-03-29T21:12:26.074Z,3.20
2018-03-29T21:14:53.556Z,3.20
2018-03-29T21:17:20.979Z,3.20
2018-03-29T21:19:49.413Z,3.00
2018-03-29T21:22:16.874Z,3.00
2018-03-29T21:24:44.331Z,3.00
2018-03-29T21:27:11.794Z,3.10
2018-03-29T21:29:39.245Z,3.10
2018-03-29T21:32:06.707Z,2.90
2018-03-29T21:34:34.247Z,2.90
2018-03-29T21:37:01.714Z,2.90
2018-03-29T21:39:29.251Z,2.80
2018-03-29T21:41:56.759Z,2.80
2018-03-29T21:44:24.200Z,2.80
2018-03-29T21:46:51.619Z,2.90
2018-03-29T21:49:19.069Z,2.90
2018-03-29T21:51:46.554Z,2.90
2018-03-29T21:54:14.092Z,2.90
2018-03-29T21:56:41.514Z,2.90
2018-03-29T21:59:09.735Z,2.80
2018-03-29T22:01:37.203Z,2.70
2018-03-29T22:04:04.664Z,2.70
2018-03-29T22:06:32.142Z,2.60
2018-03-29T22:08:59.525Z,2.60
2018-03-29T22:11:26.984Z,2.50
2018-03-29T22:13:54.482Z,2.50
2018-03-29T22:16:21.982Z,2.60
2018-03-29T22:18:50.215Z,2.70
2018-03-29T22:21:17.681Z,2.60
2018-03-29T22:23:45.206Z,2.70
2018-03-29T22:26:12.704Z,2.70
2018-03-29T22:28:40.151Z,2.70
2018-03-29T22:31:07.811Z,2.80
2018-03-29T22:33:35.251Z,2.80
2018-03-29T22:36:02.721Z,2.90
2018-03-29T22:38:30.164Z,2.90
2018-03-29T22:40:57.630Z,2.80
2018-03-29T22:43:25.170Z,2.80
2018-03-29T22:45:52.590Z,2.80
2018-03-29T22:48:20.799Z,2.70
2018-03-29T22:50:48.237Z,2.60
2018-03-29T22:53:15.667Z,2.70
2018-03-29T22:55:43.895Z,2.70
2018-03-29T22:58:11.325Z,2.70
2018-03-29T23:00:38.818Z,2.80
2018-03-29T23:03:06.251Z,2.80
2018-03-29T23:05:33.715Z,2.80
2018-03-29T23:08:01.206Z,2.80
2018-03-29T23:10:28.646Z,2.60
2018-03-29T23:12:56.086Z,2.50
2018-03-29T23:15:23.602Z,2.50
2018-03-29T23:17:51.811Z,2.40
2018-03-29T23:20:19.288Z,2.40
2018-03-29T23:22:46.747Z,2.30
2018-03-29T23:25:14.193Z,2.30
2018-03-29T23:27:41.633Z,2.30
2018-03-29T23:30:09.066Z,2.30
2018-03-29T23:32:37.311Z,2.30
2018-03-29T23:35:04.737Z,2.30
2018-03-29T23:37:32.198Z,2.30
2018-03-29T23:39:59.735Z,2.20
2018-03-29T23:42:27.220Z,2.20
2018-03-29T23:44:54.750Z,2.20
2018-03-29T23:47:22.242Z,2.30
2018-03-29T23:49:49.696Z,2.30
2018-03-29T23:52:17.142Z,2.40
2018-03-29T23:54:44.574Z,2.30
2018-03-29T23:57:12.006Z,2.20
2018-03-29T23:59:39.491Z,2.10
